Time;durP1;ratioP1;P1;durP2;ratioP2;P2;SDS_P1;SDS_P2;PMS_P1;PMS_P2;Temp;Humidity;BMP_temperature;BMP_pressure;BME280_temperature;BME280_humidity;BME280_pressure;Samples;Min_cycle;Max_cycle;Signal;HPM_P1;HPM_P2
2021/09/10 00:00:05;;;;;;;9.75;6.72;;;;;;;;;;143738;590;46020;-55
2021/09/10 00:02:32;;;;;;;11.98;6.85;;;;;;;;;;143734;603;46022;-55
2021/09/10 00:04:59;;;;;;;12.00;6.65;;;;;;;;;;143735;581;46012;-55
2021/09/10 00:07:26;;;;;;;15.10;7.20;;;;;;;;;;143736;856;45020;-55
2021/09/10 00:09:53;;;;;;;12.02;7.10;;;;;;;;;;143736;593;46020;-56
2021/09/10 00:12:20;;;;;;;10.85;6.72;;;;;;;;;;143735;569;46021;-56
2021/09/10 00:14:46;;;;;;;13.02;7.35;;;;;;;;;;143736;623;46012;-55
2021/09/10 00:17:13;;;;;;;9.70;6.90;;;;;;;;;;143736;585;45021;-55
2021/09/10 00:19:41;;;;;;;10.55;6.80;;;;;;;;;;143737;661;46021;-56
2021/09/10 00:22:08;;;;;;;14.95;7.72;;;;;;;;;;143736;633;46020;-55
2021/09/10 00:24:36;;;;;;;13.90;7.12;;;;;;;;;;143736;592;46013;-55
2021/09/10 00:27:04;;;;;;;11.82;7.43;;;;;;;;;;143736;624;46050;-54
2021/09/10 00:29:31;;;;;;;10.98;6.40;;;;;;;;;;143736;643;46020;-54
2021/09/10 00:31:58;;;;;;;8.38;6.40;;;;;;;;;;143734;565;46022;-54
2021/09/10 00:34:25;;;;;;;10.45;6.62;;;;;;;;;;143737;572;46012;-56
2021/09/10 00:36:51;;;;;;;11.25;6.43;;;;;;;;;;143738;596;45020;-55
2021/09/10 00:39:21;;;;;;;8.88;6.18;;;;;;;;;;143738;570;46020;-55
2021/09/10 00:41:48;;;;;;;8.32;5.90;;;;;;;;;;143737;596;46020;-55
2021/09/10 00:44:15;;;;;;;9.30;5.93;;;;;;;;;;143738;587;46012;-56
2021/09/10 00:46:43;;;;;;;8.85;5.47;;;;;;;;;;143736;569;45020;-55
2021/09/10 00:49:10;;;;;;;8.80;5.32;;;;;;;;;;143740;631;46021;-56
2021/09/10 00:51:37;;;;;;;8.90;5.15;;;;;;;;;;143737;583;46020;-56
2021/09/10 00:54:05;;;;;;;9.18;5.35;;;;;;;;;;143736;762;46012;-55
2021/09/10 00:56:32;;;;;;;7.80;5.18;;;;;;;;;;143738;595;45021;-55
2021/09/10 00:59:00;;;;;;;8.65;5.37;;;;;;;;;;143738;599;46020;-55
2021/09/10 01:01:28;;;;;;;7.75;5.37;;;;;;;;;;143741;597;46020;-55
2021/09/10 01:03:55;;;;;;;8.50;5.30;;;;;;;;;;143736;588;46012;-55
2021/09/10 01:06:24;;;;;;;11.20;5.57;;;;;;;;;;143736;616;45020;-55
2021/09/10 01:08:52;;;;;;;10.20;6.10;;;;;;;;;;143736;621;46020;-55
2021/09/10 01:11:20;;;;;;;11.35;5.75;;;;;;;;;;143735;699;46021;-55
2021/09/10 01:13:47;;;;;;;11.80;6.47;;;;;;;;;;143735;622;46012;-55
2021/09/10 01:16:14;;;;;;;7.95;5.50;;;;;;;;;;143740;664;45020;-55
2021/09/10 01:18:41;;;;;;;12.15;5.78;;;;;;;;;;143739;576;46021;-55
2021/09/10 01:21:08;;;;;;;11.27;6.10;;;;;;;;;;143736;581;46020;-55
2021/09/10 01:23:35;;;;;;;8.10;5.57;;;;;;;;;;143739;572;46012;-55
2021/09/10 01:26:02;;;;;;;7.32;5.37;;;;;;;;;;143740;627;45021;-55
2021/09/10 01:28:30;;;;;;;9.15;5.80;;;;;;;;;;143739;704;46020;-55
2021/09/10 01:30:57;;;;;;;11.23;5.80;;;;;;;;;;143737;750;47020;-55
2021/09/10 01:33:24;;;;;;;8.40;5.20;;;;;;;;;;143735;569;46012;-55
2021/09/10 01:35:52;;;;;;;9.38;5.35;;;;;;;;;;143739;626;45020;-55
2021/09/10 01:38:19;;;;;;;8.88;5.32;;;;;;;;;;143737;563;46020;-55
2021/09/10 01:40:46;;;;;;;8.13;4.82;;;;;;;;;;143739;617;46022;-55
2021/09/10 01:43:15;;;;;;;7.97;5.22;;;;;;;;;;143735;590;46012;-55
2021/09/10 01:45:42;;;;;;;13.65;5.53;;;;;;;;;;143737;634;46910;-55
2021/09/10 01:48:09;;;;;;;11.07;5.72;;;;;;;;;;143740;610;46021;-55
2021/09/10 01:50:36;;;;;;;8.55;5.85;;;;;;;;;;143733;807;47012;-56
2021/09/10 01:53:03;;;;;;;8.60;5.45;;;;;;;;;;143736;647;46012;-55
2021/09/10 01:55:32;;;;;;;8.70;5.78;;;;;;;;;;143736;624;45021;-56
2021/09/10 01:58:00;;;;;;;7.45;5.65;;;;;;;;;;143738;581;46020;-55
2021/09/10 02:00:27;;;;;;;9.43;5.65;;;;;;;;;;143736;568;46022;-55
2021/09/10 02:02:54;;;;;;;11.60;5.87;;;;;;;;;;143734;605;46013;-55
2021/09/10 02:05:21;;;;;;;9.70;5.82;;;;;;;;;;143737;613;45022;-55
2021/09/10 02:07:48;;;;;;;7.28;5.30;;;;;;;;;;143737;699;46018;-55
2021/09/10 02:10:16;;;;;;;8.52;5.75;;;;;;;;;;143743;643;46021;-55
2021/09/10 02:12:43;;;;;;;9.82;6.37;;;;;;;;;;143738;570;46012;-56
2021/09/10 02:15:11;;;;;;;12.65;7.03;;;;;;;;;;143738;837;46020;-55
2021/09/10 02:17:38;;;;;;;10.68;6.87;;;;;;;;;;143741;567;46021;-55
2021/09/10 02:20:07;;;;;;;12.02;6.03;;;;;;;;;;143738;573;46020;-55
2021/09/10 02:22:34;;;;;;;9.98;6.82;;;;;;;;;;143739;593;46012;-55
2021/09/10 02:25:00;;;;;;;9.98;6.57;;;;;;;;;;143737;606;46021;-56
2021/09/10 02:27:27;;;;;;;10.80;6.72;;;;;;;;;;143743;605;46020;-55
2021/09/10 02:29:55;;;;;;;9.93;5.97;;;;;;;;;;143740;620;46020;-56
2021/09/10 02:32:22;;;;;;;10.82;5.97;;;;;;;;;;143739;566;46013;-55
2021/09/10 02:34:49;;;;;;;9.18;6.12;;;;;;;;;;143738;624;45021;-56
2021/09/10 02:37:16;;;;;;;13.70;6.82;;;;;;;;;;143738;727;46020;-55
2021/09/10 02:39:43;;;;;;;7.05;5.75;;;;;;;;;;143738;632;46021;-55
2021/09/10 02:42:10;;;;;;;10.93;6.53;;;;;;;;;;143737;622;46012;-55
2021/09/10 02:44:37;;;;;;;12.45;6.65;;;;;;;;;;143737;580;45020;-55
2021/09/10 02:47:04;;;;;;;12.05;6.87;;;;;;;;;;143743;564;46021;-55
2021/09/10 02:49:31;;;;;;;11.57;5.97;;;;;;;;;;143742;625;46020;-55
2021/09/10 02:51:59;;;;;;;15.20;7.18;;;;;;;;;;143738;639;46012;-55
2021/09/10 02:54:26;;;;;;;13.25;7.12;;;;;;;;;;143738;591;45021;-55
2021/09/10 02:56:53;;;;;;;9.05;6.60;;;;;;;;;;143741;606;46020;-55
2021/09/10 02:59:20;;;;;;;12.48;7.68;;;;;;;;;;143738;573;46028;-55
2021/09/10 03:01:47;;;;;;;13.30;7.10;;;;;;;;;;143738;616;46013;-55
2021/09/10 03:04:15;;;;;;;12.77;7.28;;;;;;;;;;143738;728;45021;-55
2021/09/10 03:06:42;;;;;;;11.82;7.07;;;;;;;;;;143739;638;46020;-55
2021/09/10 03:09:09;;;;;;;9.93;6.60;;;;;;;;;;143736;584;47021;-55
2021/09/10 03:11:36;;;;;;;10.88;6.70;;;;;;;;;;143738;620;46917;-55
2021/09/10 03:14:04;;;;;;;16.48;8.82;;;;;;;;;;143738;640;45020;-55
2021/09/10 03:16:31;;;;;;;13.73;7.07;;;;;;;;;;143744;564;46020;-55
2021/09/10 03:18:59;;;;;;;13.52;7.53;;;;;;;;;;143740;763;46023;-55
2021/09/10 03:21:26;;;;;;;8.55;6.75;;;;;;;;;;143739;825;46012;-56
2021/09/10 03:23:53;;;;;;;12.98;7.25;;;;;;;;;;143737;716;45021;-55
2021/09/10 03:26:20;;;;;;;12.90;9.38;;;;;;;;;;143739;581;46020;-55
2021/09/10 03:28:47;;;;;;;28.00;17.67;;;;;;;;;;143737;876;46020;-55
2021/09/10 03:31:14;;;;;;;35.38;27.48;;;;;;;;;;143736;639;46013;-55
2021/09/10 03:33:41;;;;;;;42.10;35.90;;;;;;;;;;143739;777;45021;-55
2021/09/10 03:36:08;;;;;;;40.10;32.65;;;;;;;;;;143746;627;46020;-56
2021/09/10 03:38:36;;;;;;;33.38;27.90;;;;;;;;;;143745;691;46021;-55
2021/09/10 03:41:03;;;;;;;24.00;18.45;;;;;;;;;;143744;616;46012;-55
2021/09/10 03:43:30;;;;;;;23.77;16.73;;;;;;;;;;143746;584;45020;-55
2021/09/10 03:45:57;;;;;;;18.52;13.27;;;;;;;;;;143745;599;46020;-55
2021/09/10 03:48:24;;;;;;;17.37;11.75;;;;;;;;;;143746;576;46020;-55
2021/09/10 03:50:51;;;;;;;23.17;13.52;;;;;;;;;;143743;588;46012;-56
2021/09/10 03:53:18;;;;;;;23.17;13.75;;;;;;;;;;143746;619;45021;-55
2021/09/10 03:55:45;;;;;;;18.90;14.77;;;;;;;;;;143745;578;46021;-56
2021/09/10 03:58:12;;;;;;;17.35;11.38;;;;;;;;;;143745;592;45911;-56
2021/09/10 04:00:39;;;;;;;17.33;10.82;;;;;;;;;;143742;624;46013;-55
2021/09/10 04:03:06;;;;;;;23.70;14.23;;;;;;;;;;143746;707;45021;-55
2021/09/10 04:05:33;;;;;;;26.20;12.73;;;;;;;;;;143746;604;46020;-55
2021/09/10 04:08:00;;;;;;;21.35;13.45;;;;;;;;;;143744;582;46020;-55
2021/09/10 04:10:27;;;;;;;21.23;14.68;;;;;;;;;;143744;581;46012;-55
2021/09/10 04:12:54;;;;;;;18.85;13.40;;;;;;;;;;143745;735;45909;-55
2021/09/10 04:15:21;;;;;;;28.50;13.80;;;;;;;;;;143743;564;46020;-56
2021/09/10 04:17:48;;;;;;;23.25;13.30;;;;;;;;;;143745;598;46021;-55
2021/09/10 04:20:15;;;;;;;17.75;13.32;;;;;;;;;;143744;564;46012;-55
2021/09/10 04:22:43;;;;;;;27.77;14.38;;;;;;;;;;143746;619;45021;-55
2021/09/10 04:25:10;;;;;;;26.65;13.68;;;;;;;;;;143745;581;46021;-55
2021/09/10 04:27:37;;;;;;;36.08;15.68;;;;;;;;;;143744;569;46020;-55
2021/09/10 04:30:08;;;;;;;24.10;15.77;;;;;;;;;;143741;619;46013;-55
2021/09/10 04:32:36;;;;;;;27.52;17.83;;;;;;;;;;143745;576;45021;-55
2021/09/10 04:35:03;;;;;;;30.62;20.73;;;;;;;;;;143743;606;46020;-55
2021/09/10 04:37:30;;;;;;;23.65;15.55;;;;;;;;;;143742;602;46020;-54
2021/09/10 04:39:57;;;;;;;24.23;15.93;;;;;;;;;;143741;587;46012;-55
2021/09/10 04:42:24;;;;;;;24.02;12.70;;;;;;;;;;143738;569;45020;-54
2021/09/10 04:44:51;;;;;;;17.98;11.85;;;;;;;;;;143742;569;46020;-55
2021/09/10 04:47:18;;;;;;;17.50;11.65;;;;;;;;;;143736;631;47048;-55
2021/09/10 04:49:45;;;;;;;18.05;12.18;;;;;;;;;;143738;596;46012;-55
2021/09/10 04:52:12;;;;;;;16.30;11.35;;;;;;;;;;143738;574;45020;-55
2021/09/10 04:54:39;;;;;;;17.27;10.93;;;;;;;;;;143743;580;46021;-55
2021/09/10 04:57:06;;;;;;;15.40;11.60;;;;;;;;;;143739;565;46020;-55
2021/09/10 04:59:33;;;;;;;23.65;13.40;;;;;;;;;;143739;647;46012;-55
2021/09/10 05:02:00;;;;;;;17.48;11.40;;;;;;;;;;143741;632;45021;-55
2021/09/10 05:04:27;;;;;;;14.63;10.40;;;;;;;;;;143743;655;46020;-55
2021/09/10 05:06:54;;;;;;;19.12;11.60;;;;;;;;;;143742;583;46021;-55
2021/09/10 05:09:21;;;;;;;21.02;11.80;;;;;;;;;;143737;707;46012;-55
2021/09/10 05:11:48;;;;;;;13.60;10.23;;;;;;;;;;143740;633;45020;-55
2021/09/10 05:14:15;;;;;;;15.68;10.60;;;;;;;;;;143741;570;46020;-55
2021/09/10 05:16:43;;;;;;;16.67;10.60;;;;;;;;;;143743;587;46021;-54
2021/09/10 05:19:10;;;;;;;13.82;10.73;;;;;;;;;;143740;635;46012;-55
2021/09/10 05:21:37;;;;;;;21.83;12.80;;;;;;;;;;143739;604;45020;-54
2021/09/10 05:24:04;;;;;;;30.00;13.20;;;;;;;;;;143742;612;46021;-54
2021/09/10 05:26:33;;;;;;;20.65;12.10;;;;;;;;;;143739;602;46028;-54
2021/09/10 05:28:59;;;;;;;20.77;11.57;;;;;;;;;;143740;645;46012;-54
2021/09/10 05:31:26;;;;;;;32.75;12.85;;;;;;;;;;143739;567;45021;-54
2021/09/10 05:33:54;;;;;;;29.55;11.85;;;;;;;;;;143742;583;46020;-54
2021/09/10 05:36:21;;;;;;;18.05;10.70;;;;;;;;;;143743;642;47020;-54
2021/09/10 05:38:48;;;;;;;14.60;9.07;;;;;;;;;;143745;674;46012;-54
2021/09/10 05:41:15;;;;;;;15.98;9.30;;;;;;;;;;143751;631;45020;-54
2021/09/10 05:43:42;;;;;;;18.92;10.07;;;;;;;;;;143752;598;46020;-55
2021/09/10 05:46:09;;;;;;;14.70;9.90;;;;;;;;;;143748;613;47021;-54
2021/09/10 05:48:36;;;;;;;16.33;9.10;;;;;;;;;;143748;587;46012;-55
2021/09/10 05:51:03;;;;;;;13.95;8.38;;;;;;;;;;143746;564;45020;-55
2021/09/10 05:53:30;;;;;;;15.50;9.38;;;;;;;;;;143753;634;46021;-54
2021/09/10 05:55:58;;;;;;;17.12;9.52;;;;;;;;;;143751;624;46020;-54
2021/09/10 05:58:25;;;;;;;15.95;8.55;;;;;;;;;;143748;694;46012;-55
2021/09/10 06:00:51;;;;;;;16.33;8.75;;;;;;;;;;143752;588;45021;-55
2021/09/10 06:03:19;;;;;;;26.50;9.30;;;;;;;;;;143753;587;46020;-55
2021/09/10 06:05:46;;;;;;;13.07;9.13;;;;;;;;;;143749;588;46022;-54
2021/09/10 06:08:13;;;;;;;14.55;8.18;;;;;;;;;;143749;632;46012;-55
2021/09/10 06:10:41;;;;;;;13.45;8.25;;;;;;;;;;143749;585;45021;-54
2021/09/10 06:13:10;;;;;;;12.05;7.40;;;;;;;;;;143750;628;46020;-55
2021/09/10 06:15:36;;;;;;;11.57;8.02;;;;;;;;;;143743;564;46021;-55
2021/09/10 06:18:03;;;;;;;13.27;8.68;;;;;;;;;;143754;600;46012;-54
2021/09/10 06:20:30;;;;;;;13.70;9.07;;;;;;;;;;143752;567;45018;-54
2021/09/10 06:22:57;;;;;;;14.85;9.38;;;;;;;;;;143751;630;46023;-54
2021/09/10 06:25:27;;;;;;;11.90;8.38;;;;;;;;;;143751;628;46018;-54
2021/09/10 06:27:54;;;;;;;18.83;8.20;;;;;;;;;;143746;599;46012;-53
2021/09/10 06:30:21;;;;;;;26.42;7.78;;;;;;;;;;143752;621;45019;-54
2021/09/10 06:32:48;;;;;;;15.90;7.30;;;;;;;;;;143753;574;46023;-54
2021/09/10 06:35:15;;;;;;;15.43;7.55;;;;;;;;;;143738;564;46018;-54
2021/09/10 06:37:42;;;;;;;16.02;7.65;;;;;;;;;;143737;601;46013;-54
2021/09/10 06:40:10;;;;;;;15.82;7.28;;;;;;;;;;143738;563;45019;-54
2021/09/10 06:42:37;;;;;;;18.37;7.57;;;;;;;;;;143739;597;46022;-54
2021/09/10 06:45:05;;;;;;;16.35;7.25;;;;;;;;;;143736;577;46019;-54
2021/09/10 06:47:32;;;;;;;16.23;6.90;;;;;;;;;;143737;610;46012;-54
2021/09/10 06:49:59;;;;;;;15.25;7.12;;;;;;;;;;143735;588;46018;-54
2021/09/10 06:52:26;;;;;;;11.85;6.68;;;;;;;;;;143738;641;46023;-54
2021/09/10 06:54:53;;;;;;;14.38;7.87;;;;;;;;;;143737;569;46018;-54
2021/09/10 06:57:20;;;;;;;10.63;6.28;;;;;;;;;;143738;662;46012;-54
2021/09/10 06:59:47;;;;;;;13.98;6.75;;;;;;;;;;143735;576;45019;-53
2021/09/10 07:02:14;;;;;;;9.73;5.70;;;;;;;;;;143737;625;46023;-54
2021/09/10 07:04:41;;;;;;;12.52;5.30;;;;;;;;;;143735;579;46018;-53
2021/09/10 07:07:08;;;;;;;12.63;5.50;;;;;;;;;;143735;572;46013;-53
2021/09/10 07:09:35;;;;;;;7.15;5.00;;;;;;;;;;143738;614;45019;-53
2021/09/10 07:12:03;;;;;;;9.90;5.72;;;;;;;;;;143737;585;46022;-54
2021/09/10 07:14:32;;;;;;;8.18;4.80;;;;;;;;;;143734;590;46019;-54
2021/09/10 07:16:59;;;;;;;8.40;5.53;;;;;;;;;;143738;689;46012;-54
2021/09/10 07:19:26;;;;;;;10.35;6.43;;;;;;;;;;143735;709;46012;-54
2021/09/10 07:21:53;;;;;;;8.43;5.20;;;;;;;;;;143739;566;46023;-54
2021/09/10 07:24:20;;;;;;;10.15;5.30;;;;;;;;;;143738;583;46018;-54
2021/09/10 07:26:51;;;;;;;8.48;5.12;;;;;;;;;;143734;574;46012;-55
2021/09/10 07:29:20;;;;;;;9.93;5.90;;;;;;;;;;143740;694;45019;-54
2021/09/10 07:31:47;;;;;;;6.68;4.35;;;;;;;;;;143735;570;46023;-55
2021/09/10 07:34:14;;;;;;;12.57;5.22;;;;;;;;;;143734;718;46018;-55
2021/09/10 07:36:41;;;;;;;10.65;5.32;;;;;;;;;;143734;632;46013;-55
2021/09/10 07:39:08;;;;;;;7.80;4.40;;;;;;;;;;143734;574;45019;-55
2021/09/10 07:41:35;;;;;;;6.43;4.28;;;;;;;;;;143740;580;46022;-55
2021/09/10 07:44:02;;;;;;;9.18;4.90;;;;;;;;;;143735;583;46027;-55
2021/09/10 07:46:29;;;;;;;14.45;7.37;;;;;;;;;;143733;610;46012;-54
2021/09/10 07:48:56;;;;;;;8.60;5.10;;;;;;;;;;143735;571;46012;-54
2021/09/10 07:51:23;;;;;;;9.27;5.00;;;;;;;;;;143737;569;46022;-55
2021/09/10 07:53:50;;;;;;;11.52;4.47;;;;;;;;;;143735;589;46019;-55
2021/09/10 07:56:17;;;;;;;7.97;4.50;;;;;;;;;;143732;597;46021;-55
2021/09/10 07:58:44;;;;;;;8.52;4.45;;;;;;;;;;143736;656;45018;-55
2021/09/10 08:01:12;;;;;;;8.00;3.67;;;;;;;;;;143735;581;46023;-55
2021/09/10 08:03:39;;;;;;;8.57;4.80;;;;;;;;;;143735;571;46018;-54
2021/09/10 08:06:06;;;;;;;7.65;4.78;;;;;;;;;;143732;607;46012;-54
2021/09/10 08:08:33;;;;;;;10.27;5.65;;;;;;;;;;143736;606;45019;-54
2021/09/10 08:11:00;;;;;;;7.50;4.20;;;;;;;;;;143737;581;46022;-55
2021/09/10 08:13:27;;;;;;;9.45;4.80;;;;;;;;;;143737;609;45020;-55
2021/09/10 08:15:54;;;;;;;8.38;4.10;;;;;;;;;;143734;601;47012;-54
2021/09/10 08:18:20;;;;;;;9.25;5.22;;;;;;;;;;143737;590;45018;-54
2021/09/10 08:20:47;;;;;;;7.68;4.05;;;;;;;;;;143737;598;46022;-54
2021/09/10 08:23:15;;;;;;;9.15;3.90;;;;;;;;;;143736;570;46044;-55
2021/09/10 08:25:42;;;;;;;5.85;3.47;;;;;;;;;;143737;620;46012;-54
2021/09/10 08:28:09;;;;;;;7.22;3.87;;;;;;;;;;143737;590;45018;-53
2021/09/10 08:30:36;;;;;;;6.72;3.90;;;;;;;;;;143738;656;46023;-54
2021/09/10 08:33:08;;;;;;;5.90;3.87;;;;;;;;;;143736;600;46027;-54
2021/09/10 08:35:35;;;;;;;5.72;3.70;;;;;;;;;;143735;578;46012;-55
2021/09/10 08:38:03;;;;;;;6.37;3.92;;;;;;;;;;143736;577;45019;-55
2021/09/10 08:40:30;;;;;;;8.27;4.07;;;;;;;;;;143738;621;46022;-55
2021/09/10 08:42:57;;;;;;;6.37;3.90;;;;;;;;;;143736;572;45020;-55
2021/09/10 08:45:28;;;;;;;6.50;4.05;;;;;;;;;;143732;610;46012;-54
2021/09/10 08:47:56;;;;;;;6.85;4.10;;;;;;;;;;143736;596;45018;-54
2021/09/10 08:50:24;;;;;;;6.87;3.75;;;;;;;;;;143737;571;46022;-55
2021/09/10 08:52:52;;;;;;;5.18;3.83;;;;;;;;;;143734;577;46020;-54
2021/09/10 08:55:19;;;;;;;6.32;3.75;;;;;;;;;;143733;582;46012;-54
2021/09/10 08:57:48;;;;;;;6.35;4.03;;;;;;;;;;143736;636;45018;-54
2021/09/10 09:00:16;;;;;;;10.18;4.20;;;;;;;;;;143736;587;46023;-54
2021/09/10 09:02:56;;;;;;;5.62;3.60;;;;;;;;;;143735;574;46018;-55
2021/09/10 09:05:26;;;;;;;5.93;3.78;;;;;;;;;;143736;653;46012;-55
2021/09/10 09:08:13;;;;;;;8.38;3.97;;;;;;;;;;143735;624;45019;-54
2021/09/10 09:11:06;;;;;;;6.43;3.83;;;;;;;;;;143737;610;46022;-55
2021/09/10 09:13:40;;;;;;;6.18;3.78;;;;;;;;;;143734;609;46019;-54
2021/09/10 09:16:40;;;;;;;10.43;3.53;;;;;;;;;;143730;580;46012;-54
2021/09/10 09:19:08;;;;;;;10.02;4.18;;;;;;;;;;143736;582;45018;-55
2021/09/10 09:21:39;;;;;;;6.78;3.72;;;;;;;;;;143737;594;46023;-55
2021/09/10 09:24:22;;;;;;;3.62;3.33;;;;;;;;;;143735;585;46018;-54
2021/09/10 09:26:53;;;;;;;5.30;3.30;;;;;;;;;;143727;577;47012;-54
2021/09/10 09:29:22;;;;;;;6.65;3.22;;;;;;;;;;143737;603;45019;-55
2021/09/10 09:32:02;;;;;;;5.93;3.85;;;;;;;;;;143738;654;46022;-54
2021/09/10 09:34:48;;;;;;;7.35;4.28;;;;;;;;;;143734;644;46020;-55
2021/09/10 09:37:17;;;;;;;6.93;3.85;;;;;;;;;;143732;594;46012;-55
2021/09/10 09:39:55;;;;;;;5.87;3.53;;;;;;;;;;143734;582;46018;-54
2021/09/10 09:42:31;;;;;;;11.88;5.37;;;;;;;;;;143736;593;46022;-55
2021/09/10 09:45:12;;;;;;;8.02;3.67;;;;;;;;;;143735;652;46019;-54
2021/09/10 09:47:40;;;;;;;5.20;3.80;;;;;;;;;;143732;564;46012;-54
2021/09/10 09:50:15;;;;;;;5.85;4.03;;;;;;;;;;143734;569;46012;-54
2021/09/10 09:52:42;;;;;;;8.35;4.90;;;;;;;;;;143735;699;46023;-54
2021/09/10 09:55:10;;;;;;;7.55;4.90;;;;;;;;;;143731;564;47020;-55
2021/09/10 09:57:37;;;;;;;7.55;6.03;;;;;;;;;;143729;774;48012;-54
2021/09/10 10:00:08;;;;;;;6.60;4.37;;;;;;;;;;143736;569;45019;-53
2021/09/10 10:02:35;;;;;;;8.50;4.30;;;;;;;;;;143737;609;46022;-54
2021/09/10 10:05:03;;;;;;;7.05;3.53;;;;;;;;;;143734;606;46020;-54
2021/09/10 10:07:45;;;;;;;5.45;3.80;;;;;;;;;;143733;611;46012;-54
2021/09/10 10:10:16;;;;;;;5.37;3.45;;;;;;;;;;143734;661;45018;-54
2021/09/10 10:12:48;;;;;;;5.12;3.62;;;;;;;;;;143739;646;45022;-55
2021/09/10 10:15:27;;;;;;;7.05;3.90;;;;;;;;;;143733;592;47018;-54
2021/09/10 10:17:55;;;;;;;9.02;4.85;;;;;;;;;;143732;578;46012;-54
2021/09/10 10:20:49;;;;;;;9.98;4.32;;;;;;;;;;143735;628;45018;-55
2021/09/10 10:23:33;;;;;;;;;;;;;;;;;;143736;979;49023;-55
2021/09/10 10:26:07;;;;;;;8.52;4.80;;;;;;;;;;143739;598;46018;-54
2021/09/10 10:28:54;;;;;;;5.53;3.60;;;;;;;;;;143733;573;46023;-55
2021/09/10 10:31:57;;;;;;;6.45;3.80;;;;;;;;;;143736;569;45019;-54
2021/09/10 10:34:24;;;;;;;5.53;3.78;;;;;;;;;;143738;585;46022;-55
2021/09/10 10:36:52;;;;;;;7.25;4.10;;;;;;;;;;143733;605;46044;-55
2021/09/10 10:39:29;;;;;;;6.15;4.07;;;;;;;;;;143736;614;46029;-54
2021/09/10 10:41:59;;;;;;;4.40;3.42;;;;;;;;;;143737;564;45018;-55
2021/09/10 10:44:55;;;;;;;6.50;4.37;;;;;;;;;;143736;564;46023;-55
2021/09/10 10:47:32;;;;;;;5.72;3.55;;;;;;;;;;143733;582;49022;-55
2021/09/10 10:49:59;;;;;;;7.43;3.67;;;;;;;;;;143732;586;46012;-55
2021/09/10 10:52:54;;;;;;;8.23;3.78;;;;;;;;;;143735;685;46012;-54
2021/09/10 10:55:24;;;;;;;5.78;3.45;;;;;;;;;;143734;570;46022;-54
2021/09/10 10:58:15;;;;;;;4.90;3.85;;;;;;;;;;143734;612;47019;-54
2021/09/10 11:00:46;;;;;;;7.05;3.70;;;;;;;;;;143735;564;46012;-54
2021/09/10 11:03:32;;;;;;;5.43;3.33;;;;;;;;;;143735;584;45018;-55
2021/09/10 11:06:18;;;;;;;7.65;3.72;;;;;;;;;;143739;583;45023;-55
2021/09/10 11:08:47;;;;;;;5.40;3.80;;;;;;;;;;143733;594;46023;-55
2021/09/10 11:11:14;;;;;;;8.77;4.45;;;;;;;;;;143733;609;46012;-55
2021/09/10 11:13:42;;;;;;;4.32;3.62;;;;;;;;;;143735;609;45019;-55
2021/09/10 11:16:10;;;;;;;7.32;3.85;;;;;;;;;;143738;590;46022;-54
2021/09/10 11:18:39;;;;;;;5.70;3.87;;;;;;;;;;143733;579;47018;-55
2021/09/10 11:21:08;;;;;;;7.45;4.28;;;;;;;;;;143735;651;46012;-54
2021/09/10 11:23:37;;;;;;;6.75;3.78;;;;;;;;;;143736;564;45019;-54
2021/09/10 11:26:09;;;;;;;5.40;3.55;;;;;;;;;;143737;569;46022;-54
2021/09/10 11:28:37;;;;;;;6.53;3.72;;;;;;;;;;143736;578;46019;-54
2021/09/10 11:31:05;;;;;;;4.78;3.47;;;;;;;;;;143732;572;46012;-54
2021/09/10 11:33:43;;;;;;;4.82;3.80;;;;;;;;;;143736;585;45023;-54
2021/09/10 11:36:23;;;;;;;6.87;4.87;;;;;;;;;;143737;579;46023;-54
2021/09/10 11:38:58;;;;;;;4.87;3.67;;;;;;;;;;143736;579;46018;-54
2021/09/10 11:41:26;;;;;;;6.70;3.87;;;;;;;;;;143732;629;46012;-54
2021/09/10 11:43:53;;;;;;;5.40;3.97;;;;;;;;;;143736;652;45023;-54
2021/09/10 11:46:20;;;;;;;7.35;3.87;;;;;;;;;;143736;651;46022;-54
2021/09/10 11:48:49;;;;;;;6.68;3.87;;;;;;;;;;143736;641;46036;-53
2021/09/10 11:51:35;;;;;;;5.32;3.67;;;;;;;;;;143733;597;46013;-54
2021/09/10 11:54:02;;;;;;;7.28;4.03;;;;;;;;;;143736;565;45018;-54
2021/09/10 11:56:32;;;;;;;14.82;4.72;;;;;;;;;;143737;690;46022;-54
2021/09/10 11:58:59;;;;;;;7.15;4.12;;;;;;;;;;143736;656;46018;-54
2021/09/10 12:01:37;;;;;;;20.15;4.93;;;;;;;;;;143732;572;46012;-54
2021/09/10 12:04:06;;;;;;;9.82;4.40;;;;;;;;;;143735;569;46023;-54
2021/09/10 12:06:45;;;;;;;10.32;4.45;;;;;;;;;;143739;569;46023;-54
2021/09/10 12:09:34;;;;;;;9.45;4.32;;;;;;;;;;143734;658;46020;-54
2021/09/10 12:12:16;;;;;;;11.75;4.25;;;;;;;;;;143732;637;46012;-54
2021/09/10 12:14:57;;;;;;;10.80;4.85;;;;;;;;;;143735;593;46019;-54
2021/09/10 12:17:34;;;;;;;10.95;4.50;;;;;;;;;;143735;581;46012;-54
2021/09/10 12:20:13;;;;;;;7.85;4.10;;;;;;;;;;143734;570;46020;-53
2021/09/10 12:23:09;;;;;;;8.43;4.40;;;;;;;;;;143732;576;46012;-54
2021/09/10 12:25:39;;;;;;;7.65;4.20;;;;;;;;;;143738;565;45018;-54
2021/09/10 12:28:20;;;;;;;7.32;4.00;;;;;;;;;;143738;591;46022;-54
2021/09/10 12:30:59;;;;;;;6.95;4.35;;;;;;;;;;143735;564;47018;-54
2021/09/10 12:33:28;;;;;;;8.65;4.62;;;;;;;;;;143735;563;46012;-54
2021/09/10 12:36:00;;;;;;;6.03;4.03;;;;;;;;;;143736;620;45019;-53
2021/09/10 12:38:38;;;;;;;6.47;4.00;;;;;;;;;;143739;576;46022;-54
2021/09/10 12:41:06;;;;;;;5.45;4.00;;;;;;;;;;143730;598;47020;-53
2021/09/10 12:43:34;;;;;;;8.35;4.35;;;;;;;;;;143733;584;46028;-54
2021/09/10 12:46:01;;;;;;;6.65;4.70;;;;;;;;;;143736;609;45020;-54
2021/09/10 12:48:28;;;;;;;8.73;4.65;;;;;;;;;;143737;587;46020;-54
2021/09/10 12:50:55;;;;;;;9.77;5.12;;;;;;;;;;143736;567;46018;-54
2021/09/10 12:53:24;;;;;;;10.32;5.07;;;;;;;;;;143731;589;46012;-54
2021/09/10 12:55:51;;;;;;;12.20;6.65;;;;;;;;;;143736;673;45018;-54
2021/09/10 12:58:18;;;;;;;9.25;6.15;;;;;;;;;;143738;588;46023;-55
2021/09/10 13:00:45;;;;;;;11.07;6.03;;;;;;;;;;143735;571;46018;-55
2021/09/10 13:03:12;;;;;;;14.65;7.18;;;;;;;;;;143735;570;46012;-54
2021/09/10 13:05:40;;;;;;;11.65;6.20;;;;;;;;;;143737;570;45019;-54
2021/09/10 13:08:08;;;;;;;12.55;6.15;;;;;;;;;;143738;564;46022;-54
2021/09/10 13:10:36;;;;;;;12.52;6.62;;;;;;;;;;143735;585;46018;-54
2021/09/10 13:13:03;;;;;;;13.20;6.70;;;;;;;;;;143737;675;46013;-54
2021/09/10 13:15:30;;;;;;;12.25;6.45;;;;;;;;;;143736;583;45912;-54
2021/09/10 13:17:57;;;;;;;9.48;6.03;;;;;;;;;;143739;660;46022;-54
2021/09/10 13:20:24;;;;;;;9.75;6.60;;;;;;;;;;143735;652;46020;-54
2021/09/10 13:22:51;;;;;;;10.55;6.68;;;;;;;;;;143733;585;46012;-54
2021/09/10 13:25:18;;;;;;;11.75;6.78;;;;;;;;;;143739;569;45018;-54
2021/09/10 13:27:45;;;;;;;10.90;6.37;;;;;;;;;;143737;599;46023;-54
2021/09/10 13:30:14;;;;;;;11.70;6.55;;;;;;;;;;143735;595;46018;-54
2021/09/10 13:32:41;;;;;;;11.77;6.32;;;;;;;;;;143736;705;46012;-55
2021/09/10 13:35:09;;;;;;;8.05;5.10;;;;;;;;;;143736;571;45912;-55
2021/09/10 13:37:36;;;;;;;10.45;6.05;;;;;;;;;;143734;584;46593;-54
2021/09/10 13:40:03;;;;;;;13.20;5.45;;;;;;;;;;143735;692;46018;-54
2021/09/10 13:42:30;;;;;;;8.88;4.90;;;;;;;;;;143732;597;46021;-55
2021/09/10 13:44:57;;;;;;;8.77;5.65;;;;;;;;;;143735;578;45912;-54
2021/09/10 13:47:25;;;;;;;13.25;6.30;;;;;;;;;;143736;632;46022;-54
2021/09/10 13:49:52;;;;;;;9.60;5.75;;;;;;;;;;143737;569;46019;-55
2021/09/10 13:52:18;;;;;;;8.15;5.25;;;;;;;;;;143736;659;46012;-54
2021/09/10 13:54:45;;;;;;;8.35;4.90;;;;;;;;;;143735;573;46014;-54
2021/09/10 13:57:13;;;;;;;8.38;4.87;;;;;;;;;;143737;590;46023;-54
2021/09/10 13:59:40;;;;;;;10.27;5.65;;;;;;;;;;143736;564;46018;-54
2021/09/10 14:02:07;;;;;;;5.97;4.37;;;;;;;;;;143733;672;46012;-54
2021/09/10 14:04:34;;;;;;;8.00;5.32;;;;;;;;;;143735;693;45912;-54
2021/09/10 14:07:02;;;;;;;6.53;4.53;;;;;;;;;;143736;630;46023;-54
2021/09/10 14:09:29;;;;;;;10.10;5.50;;;;;;;;;;143733;582;47018;-54
2021/09/10 14:11:56;;;;;;;6.35;4.40;;;;;;;;;;143733;618;46013;-54
2021/09/10 14:14:23;;;;;;;8.45;4.75;;;;;;;;;;143736;572;45019;-54
2021/09/10 14:16:52;;;;;;;8.20;5.25;;;;;;;;;;143737;648;46022;-54
2021/09/10 14:19:19;;;;;;;7.93;4.82;;;;;;;;;;143737;660;46019;-53
2021/09/10 14:21:46;;;;;;;5.95;4.57;;;;;;;;;;143731;586;46921;-54
2021/09/10 14:24:13;;;;;;;5.62;4.60;;;;;;;;;;143738;587;45018;-54
2021/09/10 14:26:40;;;;;;;7.82;4.50;;;;;;;;;;143737;639;46023;-54
2021/09/10 14:29:07;;;;;;;5.80;4.43;;;;;;;;;;143736;574;46021;-54
2021/09/10 14:31:34;;;;;;;8.70;5.15;;;;;;;;;;143733;565;46012;-54
2021/09/10 14:34:02;;;;;;;7.60;4.65;;;;;;;;;;143736;594;45018;-54
2021/09/10 14:36:29;;;;;;;5.50;4.35;;;;;;;;;;143737;572;46023;-54
2021/09/10 14:38:57;;;;;;;7.12;4.75;;;;;;;;;;143736;582;46018;-54
2021/09/10 14:41:25;;;;;;;7.43;5.25;;;;;;;;;;143734;577;47920;-54
2021/09/10 14:43:53;;;;;;;8.88;4.80;;;;;;;;;;143735;593;45913;-55
2021/09/10 14:46:21;;;;;;;8.00;4.65;;;;;;;;;;143739;633;46022;-54